sensor_id;sensor_type;location;lat;lon;timestamp;temperature;humidity
27747;DHT22;15138;51.012;4.692;2023-02-20T00:01:20;5.50;1.00
27747;DHT22;15138;51.012;4.692;2023-02-20T00:03:50;5.50;1.00
27747;DHT22;15138;51.012;4.692;2023-02-20T00:06:19;5.50;1.00
27747;DHT22;15138;51.012;4.692;2023-02-20T00:08:47;5.50;1.00
27747;DHT22;15138;51.012;4.692;2023-02-20T00:11:16;5.50;1.00
27747;DHT22;15138;51.012;4.692;2023-02-20T00:13:45;5.40;1.00
27747;DHT22;15138;51.012;4.692;2023-02-20T00:16:14;5.40;1.00
27747;DHT22;15138;51.012;4.692;2023-02-20T00:18:43;5.40;1.00
27747;DHT22;15138;51.012;4.692;2023-02-20T00:21:14;5.40;1.00
27747;DHT22;15138;51.012;4.692;2023-02-20T00:23:42;5.30;1.00
27747;DHT22;15138;51.012;4.692;2023-02-20T00:26:13;5.30;1.00
27747;DHT22;15138;51.012;4.692;2023-02-20T00:28:43;5.30;1.00
27747;DHT22;15138;51.012;4.692;2023-02-20T00:31:14;5.20;1.00
27747;DHT22;15138;51.012;4.692;2023-02-20T00:33:44;5.30;1.00
27747;DHT22;15138;51.012;4.692;2023-02-20T00:36:18;5.20;1.00
27747;DHT22;15138;51.012;4.692;2023-02-20T00:38:47;5.30;1.00
27747;DHT22;15138;51.012;4.692;2023-02-20T00:41:16;5.30;1.00
27747;DHT22;15138;51.012;4.692;2023-02-20T00:43:44;5.30;1.00
27747;DHT22;15138;51.012;4.692;2023-02-20T00:46:13;5.30;1.00
27747;DHT22;15138;51.012;4.692;2023-02-20T00:48:42;5.30;1.00
27747;DHT22;15138;51.012;4.692;2023-02-20T00:51:11;5.30;1.00
27747;DHT22;15138;51.012;4.692;2023-02-20T00:53:41;5.30;82.20
27747;DHT22;15138;51.012;4.692;2023-02-20T00:56:10;5.30;99.90
27747;DHT22;15138;51.012;4.692;2023-02-20T00:58:39;5.40;99.90
27747;DHT22;15138;51.012;4.692;2023-02-20T01:01:08;5.30;99.90
27747;DHT22;15138;51.012;4.692;2023-02-20T01:03:37;5.40;99.90
27747;DHT22;15138;51.012;4.692;2023-02-20T01:06:05;5.40;99.90
27747;DHT22;15138;51.012;4.692;2023-02-20T01:08:34;5.40;99.90
27747;DHT22;15138;51.012;4.692;2023-02-20T01:11:04;5.50;1.00
27747;DHT22;15138;51.012;4.692;2023-02-20T01:13:33;5.50;1.00
27747;DHT22;15138;51.012;4.692;2023-02-20T01:16:03;5.70;1.00
27747;DHT22;15138;51.012;4.692;2023-02-20T01:18:31;5.60;1.00
27747;DHT22;15138;51.012;4.692;2023-02-20T01:21:00;5.60;1.00
27747;DHT22;15138;51.012;4.692;2023-02-20T01:23:29;5.50;1.00
27747;DHT22;15138;51.012;4.692;2023-02-20T01:25:58;5.60;1.00
27747;DHT22;15138;51.012;4.692;2023-02-20T01:28:28;5.60;17.40
27747;DHT22;15138;51.012;4.692;2023-02-20T01:30:56;5.60;21.80
27747;DHT22;15138;51.012;4.692;2023-02-20T01:33:25;5.60;56.50
27747;DHT22;15138;51.012;4.692;2023-02-20T01:35:54;5.60;22.30
27747;DHT22;15138;51.012;4.692;2023-02-20T01:38:22;5.60;51.60
27747;DHT22;15138;51.012;4.692;2023-02-20T01:40:51;5.60;45.80
27747;DHT22;15138;51.012;4.692;2023-02-20T01:43:19;5.70;99.90
27747;DHT22;15138;51.012;4.692;2023-02-20T01:45:50;5.70;99.90
27747;DHT22;15138;51.012;4.692;2023-02-20T01:48:20;5.70;99.90
27747;DHT22;15138;51.012;4.692;2023-02-20T01:50:52;5.70;99.90
27747;DHT22;15138;51.012;4.692;2023-02-20T01:53:26;5.60;99.90
27747;DHT22;15138;51.012;4.692;2023-02-20T01:55:58;5.70;99.90
27747;DHT22;15138;51.012;4.692;2023-02-20T01:58:32;5.80;1.00
27747;DHT22;15138;51.012;4.692;2023-02-20T02:01:04;5.80;99.90
27747;DHT22;15138;51.012;4.692;2023-02-20T02:03:35;5.80;99.90
27747;DHT22;15138;51.012;4.692;2023-02-20T02:06:07;5.80;99.90
27747;DHT22;15138;51.012;4.692;2023-02-20T02:08:39;5.90;1.00
27747;DHT22;15138;51.012;4.692;2023-02-20T02:11:10;5.90;1.00
27747;DHT22;15138;51.012;4.692;2023-02-20T02:13:42;5.90;1.00
27747;DHT22;15138;51.012;4.692;2023-02-20T02:16:18;5.90;1.00
27747;DHT22;15138;51.012;4.692;2023-02-20T02:18:57;5.90;1.00
27747;DHT22;15138;51.012;4.692;2023-02-20T02:22:06;5.90;1.00
27747;DHT22;15138;51.012;4.692;2023-02-20T02:25:10;6.00;1.00
27747;DHT22;15138;51.012;4.692;2023-02-20T02:28:13;6.10;99.90
27747;DHT22;15138;51.012;4.692;2023-02-20T02:34:24;6.10;60.20
27747;DHT22;15138;51.012;4.692;2023-02-20T02:37:02;6.10;99.90
27747;DHT22;15138;51.012;4.692;2023-02-20T02:39:40;6.10;99.90
27747;DHT22;15138;51.012;4.692;2023-02-20T02:42:16;6.10;86.80
27747;DHT22;15138;51.012;4.692;2023-02-20T02:44:51;6.20;99.90
27747;DHT22;15138;51.012;4.692;2023-02-20T02:47:28;6.20;1.00
27747;DHT22;15138;51.012;4.692;2023-02-20T02:50:05;6.10;23.00
27747;DHT22;15138;51.012;4.692;2023-02-20T02:52:37;6.10;29.50
27747;DHT22;15138;51.012;4.692;2023-02-20T02:55:14;6.20;1.00
27747;DHT22;15138;51.012;4.692;2023-02-20T02:57:44;6.20;48.20
27747;DHT22;15138;51.012;4.692;2023-02-20T03:00:16;6.20;1.00
27747;DHT22;15138;51.012;4.692;2023-02-20T03:02:59;6.20;1.00
27747;DHT22;15138;51.012;4.692;2023-02-20T03:05:33;6.20;14.80
27747;DHT22;15138;51.012;4.692;2023-02-20T03:08:20;6.20;99.90
27747;DHT22;15138;51.012;4.692;2023-02-20T03:11:00;6.30;99.90
27747;DHT22;15138;51.012;4.692;2023-02-20T03:13:34;6.30;99.90
27747;DHT22;15138;51.012;4.692;2023-02-20T03:16:25;6.30;99.90
27747;DHT22;15138;51.012;4.692;2023-02-20T03:19:00;6.30;1.00
27747;DHT22;15138;51.012;4.692;2023-02-20T03:21:31;6.20;1.00
27747;DHT22;15138;51.012;4.692;2023-02-20T03:24:04;6.20;41.80
27747;DHT22;15138;51.012;4.692;2023-02-20T03:26:34;6.30;82.50
27747;DHT22;15138;51.012;4.692;2023-02-20T03:29:06;6.30;49.30
27747;DHT22;15138;51.012;4.692;2023-02-20T03:31:40;6.20;26.00
27747;DHT22;15138;51.012;4.692;2023-02-20T03:34:12;6.10;1.00
27747;DHT22;15138;51.012;4.692;2023-02-20T03:37:01;6.20;99.90
27747;DHT22;15138;51.012;4.692;2023-02-20T03:39:53;6.10;98.10
27747;DHT22;15138;51.012;4.692;2023-02-20T03:42:45;6.20;49.30
27747;DHT22;15138;51.012;4.692;2023-02-20T03:45:32;6.10;99.90
27747;DHT22;15138;51.012;4.692;2023-02-20T03:48:07;6.10;99.90
27747;DHT22;15138;51.012;4.692;2023-02-20T03:50:37;6.10;99.90
27747;DHT22;15138;51.012;4.692;2023-02-20T03:53:05;6.10;99.90
27747;DHT22;15138;51.012;4.692;2023-02-20T03:55:36;6.10;99.90
27747;DHT22;15138;51.012;4.692;2023-02-20T03:58:06;6.10;99.90
27747;DHT22;15138;51.012;4.692;2023-02-20T04:00:39;6.10;99.90
27747;DHT22;15138;51.012;4.692;2023-02-20T04:03:11;6.10;1.00
27747;DHT22;15138;51.012;4.692;2023-02-20T04:05:44;6.10;1.00
27747;DHT22;15138;51.012;4.692;2023-02-20T04:08:17;6.20;1.00
27747;DHT22;15138;51.012;4.692;2023-02-20T04:10:54;6.10;1.00
27747;DHT22;15138;51.012;4.692;2023-02-20T04:13:24;6.20;1.00
27747;DHT22;15138;51.012;4.692;2023-02-20T04:15:53;6.30;1.00
27747;DHT22;15138;51.012;4.692;2023-02-20T04:18:24;6.40;93.50
27747;DHT22;15138;51.012;4.692;2023-02-20T04:20:55;6.40;37.00
27747;DHT22;15138;51.012;4.692;2023-02-20T04:23:26;6.40;1.00
27747;DHT22;15138;51.012;4.692;2023-02-20T04:26:00;6.50;76.00
27747;DHT22;15138;51.012;4.692;2023-02-20T04:28:30;6.60;1.00
27747;DHT22;15138;51.012;4.692;2023-02-20T04:30:58;6.60;1.00
27747;DHT22;15138;51.012;4.692;2023-02-20T04:33:27;6.60;1.00
27747;DHT22;15138;51.012;4.692;2023-02-20T04:35:56;6.70;1.00
27747;DHT22;15138;51.012;4.692;2023-02-20T04:38:25;6.80;99.90
27747;DHT22;15138;51.012;4.692;2023-02-20T04:40:53;6.80;99.90
27747;DHT22;15138;51.012;4.692;2023-02-20T04:43:24;6.80;79.30
27747;DHT22;15138;51.012;4.692;2023-02-20T04:45:52;6.80;1.00
27747;DHT22;15138;51.012;4.692;2023-02-20T04:48:21;6.80;1.00
27747;DHT22;15138;51.012;4.692;2023-02-20T04:50:50;6.90;1.00
27747;DHT22;15138;51.012;4.692;2023-02-20T04:53:19;7.00;1.00
27747;DHT22;15138;51.012;4.692;2023-02-20T04:55:48;7.00;99.90
27747;DHT22;15138;51.012;4.692;2023-02-20T04:58:16;7.00;99.90
27747;DHT22;15138;51.012;4.692;2023-02-20T05:05:44;7.10;1.00
27747;DHT22;15138;51.012;4.692;2023-02-20T05:08:13;7.10;1.00
27747;DHT22;15138;51.012;4.692;2023-02-20T05:10:41;7.20;1.00
27747;DHT22;15138;51.012;4.692;2023-02-20T05:13:10;7.20;1.00
27747;DHT22;15138;51.012;4.692;2023-02-20T05:15:38;7.20;1.00
27747;DHT22;15138;51.012;4.692;2023-02-20T05:18:09;7.20;1.00
27747;DHT22;15138;51.012;4.692;2023-02-20T05:20:38;7.20;1.00
27747;DHT22;15138;51.012;4.692;2023-02-20T05:23:23;7.20;99.90
27747;DHT22;15138;51.012;4.692;2023-02-20T05:25:52;7.20;99.90
27747;DHT22;15138;51.012;4.692;2023-02-20T05:28:20;7.30;99.90
27747;DHT22;15138;51.012;4.692;2023-02-20T05:30:49;7.20;99.90
27747;DHT22;15138;51.012;4.692;2023-02-20T05:33:19;7.30;99.90
27747;DHT22;15138;51.012;4.692;2023-02-20T05:35:48;7.20;99.90
27747;DHT22;15138;51.012;4.692;2023-02-20T05:38:17;7.30;99.90
27747;DHT22;15138;51.012;4.692;2023-02-20T05:40:46;7.30;99.90
27747;DHT22;15138;51.012;4.692;2023-02-20T05:43:15;7.30;99.90
27747;DHT22;15138;51.012;4.692;2023-02-20T05:45:44;7.40;99.90
27747;DHT22;15138;51.012;4.692;2023-02-20T05:48:13;7.30;99.90
27747;DHT22;15138;51.012;4.692;2023-02-20T05:50:44;7.30;99.90
27747;DHT22;15138;51.012;4.692;2023-02-20T05:53:12;7.40;99.90
27747;DHT22;15138;51.012;4.692;2023-02-20T05:55:41;7.40;99.90
27747;DHT22;15138;51.012;4.692;2023-02-20T05:58:10;7.40;99.90
27747;DHT22;15138;51.012;4.692;2023-02-20T06:00:42;7.40;99.90
27747;DHT22;15138;51.012;4.692;2023-02-20T06:03:14;7.40;99.90
27747;DHT22;15138;51.012;4.692;2023-02-20T06:05:47;7.40;99.90
27747;DHT22;15138;51.012;4.692;2023-02-20T06:08:21;7.40;99.90
27747;DHT22;15138;51.012;4.692;2023-02-20T06:10:55;7.40;99.90
27747;DHT22;15138;51.012;4.692;2023-02-20T06:13:26;7.40;64.80
27747;DHT22;15138;51.012;4.692;2023-02-20T06:15:56;7.40;25.90
27747;DHT22;15138;51.012;4.692;2023-02-20T06:18:26;7.40;1.00
27747;DHT22;15138;51.012;4.692;2023-02-20T06:20:57;7.40;1.00
27747;DHT22;15138;51.012;4.692;2023-02-20T06:25:59;7.40;1.00
27747;DHT22;15138;51.012;4.692;2023-02-20T06:28:32;7.40;1.00
27747;DHT22;15138;51.012;4.692;2023-02-20T06:31:04;7.40;1.00
27747;DHT22;15138;51.012;4.692;2023-02-20T06:33:35;7.40;1.00
27747;DHT22;15138;51.012;4.692;2023-02-20T06:36:18;7.40;1.00
27747;DHT22;15138;51.012;4.692;2023-02-20T06:38:50;7.40;1.00
27747;DHT22;15138;51.012;4.692;2023-02-20T06:41:24;7.40;1.00
27747;DHT22;15138;51.012;4.692;2023-02-20T06:43:54;7.40;1.00
27747;DHT22;15138;51.012;4.692;2023-02-20T06:46:27;7.40;1.00
27747;DHT22;15138;51.012;4.692;2023-02-20T06:49:02;7.40;1.00
27747;DHT22;15138;51.012;4.692;2023-02-20T06:51:34;7.40;1.00
27747;DHT22;15138;51.012;4.692;2023-02-20T06:54:09;7.40;1.00
27747;DHT22;15138;51.012;4.692;2023-02-20T06:56:44;7.40;1.00
27747;DHT22;15138;51.012;4.692;2023-02-20T06:59:15;7.40;1.00
27747;DHT22;15138;51.012;4.692;2023-02-20T07:01:47;7.40;1.00
27747;DHT22;15138;51.012;4.692;2023-02-20T07:04:19;7.40;1.00
27747;DHT22;15138;51.012;4.692;2023-02-20T07:06:52;7.40;1.00
27747;DHT22;15138;51.012;4.692;2023-02-20T07:09:22;7.40;1.00
27747;DHT22;15138;51.012;4.692;2023-02-20T07:11:53;7.40;1.00
27747;DHT22;15138;51.012;4.692;2023-02-20T07:14:23;7.50;1.00
27747;DHT22;15138;51.012;4.692;2023-02-20T07:16:54;7.40;99.90
27747;DHT22;15138;51.012;4.692;2023-02-20T07:19:26;7.40;99.90
27747;DHT22;15138;51.012;4.692;2023-02-20T07:21:59;7.40;99.90
27747;DHT22;15138;51.012;4.692;2023-02-20T07:24:33;7.50;99.90
27747;DHT22;15138;51.012;4.692;2023-02-20T07:27:06;7.50;99.90
27747;DHT22;15138;51.012;4.692;2023-02-20T07:29:48;7.50;99.90
27747;DHT22;15138;51.012;4.692;2023-02-20T07:32:37;7.50;99.90
27747;DHT22;15138;51.012;4.692;2023-02-20T07:35:07;7.60;99.90
27747;DHT22;15138;51.012;4.692;2023-02-20T07:37:41;7.60;99.90
27747;DHT22;15138;51.012;4.692;2023-02-20T07:40:11;7.60;99.90
27747;DHT22;15138;51.012;4.692;2023-02-20T07:42:49;7.60;99.90
27747;DHT22;15138;51.012;4.692;2023-02-20T07:45:28;7.60;99.90
27747;DHT22;15138;51.012;4.692;2023-02-20T07:47:59;7.60;99.90
27747;DHT22;15138;51.012;4.692;2023-02-20T07:50:43;7.60;99.90
27747;DHT22;15138;51.012;4.692;2023-02-20T07:53:48;7.60;99.90
27747;DHT22;15138;51.012;4.692;2023-02-20T07:56:25;7.70;99.90
27747;DHT22;15138;51.012;4.692;2023-02-20T07:58:55;7.70;99.90
27747;DHT22;15138;51.012;4.692;2023-02-20T08:01:30;7.70;99.90
27747;DHT22;15138;51.012;4.692;2023-02-20T08:04:01;7.70;99.90
27747;DHT22;15138;51.012;4.692;2023-02-20T08:06:32;7.80;99.90
27747;DHT22;15138;51.012;4.692;2023-02-20T08:09:07;7.80;99.90
27747;DHT22;15138;51.012;4.692;2023-02-20T08:11:37;7.80;99.90
27747;DHT22;15138;51.012;4.692;2023-02-20T08:14:07;7.80;99.90
27747;DHT22;15138;51.012;4.692;2023-02-20T08:16:39;7.90;99.90
27747;DHT22;15138;51.012;4.692;2023-02-20T08:19:18;7.90;99.90
27747;DHT22;15138;51.012;4.692;2023-02-20T08:21:57;7.90;99.90
27747;DHT22;15138;51.012;4.692;2023-02-20T08:27:24;8.00;99.90
27747;DHT22;15138;51.012;4.692;2023-02-20T08:29:58;7.90;99.90
27747;DHT22;15138;51.012;4.692;2023-02-20T08:32:28;8.00;99.90
27747;DHT22;15138;51.012;4.692;2023-02-20T08:35:03;8.00;99.90
27747;DHT22;15138;51.012;4.692;2023-02-20T08:37:39;8.00;99.90
27747;DHT22;15138;51.012;4.692;2023-02-20T08:40:14;8.10;99.90
27747;DHT22;15138;51.012;4.692;2023-02-20T08:42:48;8.00;99.90
27747;DHT22;15138;51.012;4.692;2023-02-20T08:45:24;8.10;99.90
27747;DHT22;15138;51.012;4.692;2023-02-20T08:47:56;8.10;99.90
27747;DHT22;15138;51.012;4.692;2023-02-20T08:50:29;8.10;99.90
27747;DHT22;15138;51.012;4.692;2023-02-20T08:53:04;8.10;99.90
27747;DHT22;15138;51.012;4.692;2023-02-20T08:55:42;8.10;99.90
27747;DHT22;15138;51.012;4.692;2023-02-20T08:58:19;8.20;99.90
27747;DHT22;15138;51.012;4.692;2023-02-20T09:00:51;8.20;99.90
27747;DHT22;15138;51.012;4.692;2023-02-20T09:03:22;8.20;99.90
27747;DHT22;15138;51.012;4.692;2023-02-20T09:05:59;8.30;99.90
27747;DHT22;15138;51.012;4.692;2023-02-20T09:08:31;8.30;99.90
27747;DHT22;15138;51.012;4.692;2023-02-20T09:11:07;8.20;99.90
27747;DHT22;15138;51.012;4.692;2023-02-20T09:13:43;8.20;99.90
27747;DHT22;15138;51.012;4.692;2023-02-20T09:16:22;8.30;99.90
27747;DHT22;15138;51.012;4.692;2023-02-20T09:19:07;8.20;99.90
27747;DHT22;15138;51.012;4.692;2023-02-20T09:21:45;8.30;99.90
27747;DHT22;15138;51.012;4.692;2023-02-20T09:24:17;8.30;99.90
27747;DHT22;15138;51.012;4.692;2023-02-20T09:26:50;8.30;99.90
27747;DHT22;15138;51.012;4.692;2023-02-20T09:29:26;8.40;99.90
27747;DHT22;15138;51.012;4.692;2023-02-20T09:32:14;8.40;99.90
27747;DHT22;15138;51.012;4.692;2023-02-20T09:35:00;8.40;99.90
27747;DHT22;15138;51.012;4.692;2023-02-20T09:37:35;8.50;99.90
27747;DHT22;15138;51.012;4.692;2023-02-20T09:40:12;8.40;99.90
27747;DHT22;15138;51.012;4.692;2023-02-20T09:43:17;8.50;99.90
27747;DHT22;15138;51.012;4.692;2023-02-20T09:46:00;8.50;99.90
27747;DHT22;15138;51.012;4.692;2023-02-20T09:49:03;8.50;99.90
27747;DHT22;15138;51.012;4.692;2023-02-20T09:51:40;8.60;99.90
27747;DHT22;15138;51.012;4.692;2023-02-20T09:54:21;8.50;99.90
27747;DHT22;15138;51.012;4.692;2023-02-20T09:56:56;8.50;99.90
27747;DHT22;15138;51.012;4.692;2023-02-20T09:59:37;8.50;99.90
27747;DHT22;15138;51.012;4.692;2023-02-20T10:02:15;8.60;99.90
27747;DHT22;15138;51.012;4.692;2023-02-20T10:04:50;8.60;99.90
27747;DHT22;15138;51.012;4.692;2023-02-20T10:07:32;8.60;99.90
27747;DHT22;15138;51.012;4.692;2023-02-20T10:10:20;8.60;99.90
27747;DHT22;15138;51.012;4.692;2023-02-20T10:13:05;8.70;99.90
27747;DHT22;15138;51.012;4.692;2023-02-20T10:15:52;8.70;99.90
27747;DHT22;15138;51.012;4.692;2023-02-20T10:18:28;8.70;99.90
27747;DHT22;15138;51.012;4.692;2023-02-20T10:21:05;8.70;99.90
27747;DHT22;15138;51.012;4.692;2023-02-20T10:23:44;8.70;99.90
27747;DHT22;15138;51.012;4.692;2023-02-20T10:26:35;8.70;99.90
27747;DHT22;15138;51.012;4.692;2023-02-20T10:29:20;8.80;99.90
27747;DHT22;15138;51.012;4.692;2023-02-20T10:32:02;8.70;99.90
27747;DHT22;15138;51.012;4.692;2023-02-20T10:34:36;8.80;99.90
27747;DHT22;15138;51.012;4.692;2023-02-20T10:37:09;8.80;99.90
27747;DHT22;15138;51.012;4.692;2023-02-20T10:39:49;8.80;99.90
27747;DHT22;15138;51.012;4.692;2023-02-20T10:42:35;8.90;99.90
27747;DHT22;15138;51.012;4.692;2023-02-20T10:45:17;8.90;99.90
27747;DHT22;15138;51.012;4.692;2023-02-20T10:48:00;8.90;99.90
27747;DHT22;15138;51.012;4.692;2023-02-20T10:50:39;9.00;99.90
27747;DHT22;15138;51.012;4.692;2023-02-20T10:53:21;8.90;99.90
27747;DHT22;15138;51.012;4.692;2023-02-20T10:56:02;9.00;99.90
27747;DHT22;15138;51.012;4.692;2023-02-20T10:58:39;9.00;99.90
27747;DHT22;15138;51.012;4.692;2023-02-20T11:01:15;9.00;99.90
27747;DHT22;15138;51.012;4.692;2023-02-20T11:03:55;9.10;99.90
27747;DHT22;15138;51.012;4.692;2023-02-20T11:06:30;9.00;99.90
27747;DHT22;15138;51.012;4.692;2023-02-20T11:11:34;9.20;99.90
27747;DHT22;15138;51.012;4.692;2023-02-20T11:16:46;9.10;99.90
27747;DHT22;15138;51.012;4.692;2023-02-20T11:19:22;9.10;99.90
27747;DHT22;15138;51.012;4.692;2023-02-20T11:21:56;9.10;99.90
27747;DHT22;15138;51.012;4.692;2023-02-20T11:24:31;9.10;99.90
27747;DHT22;15138;51.012;4.692;2023-02-20T11:27:09;9.20;99.90
27747;DHT22;15138;51.012;4.692;2023-02-20T11:29:46;9.00;99.90
27747;DHT22;15138;51.012;4.692;2023-02-20T11:32:35;9.10;99.90
27747;DHT22;15138;51.012;4.692;2023-02-20T11:35:28;9.10;99.90
27747;DHT22;15138;51.012;4.692;2023-02-20T11:38:25;9.20;99.90
27747;DHT22;15138;51.012;4.692;2023-02-20T11:41:03;9.20;99.90
27747;DHT22;15138;51.012;4.692;2023-02-20T11:43:34;9.20;99.90
27747;DHT22;15138;51.012;4.692;2023-02-20T11:46:14;9.20;99.90
27747;DHT22;15138;51.012;4.692;2023-02-20T11:48:59;9.20;99.90
27747;DHT22;15138;51.012;4.692;2023-02-20T11:51:36;9.30;99.90
27747;DHT22;15138;51.012;4.692;2023-02-20T11:54:09;9.20;99.90
27747;DHT22;15138;51.012;4.692;2023-02-20T11:56:57;9.30;99.90
27747;DHT22;15138;51.012;4.692;2023-02-20T11:59:36;9.30;99.90
27747;DHT22;15138;51.012;4.692;2023-02-20T12:02:26;9.20;99.90
27747;DHT22;15138;51.012;4.692;2023-02-20T12:05:07;9.20;99.90
27747;DHT22;15138;51.012;4.692;2023-02-20T12:07:52;9.30;99.90
27747;DHT22;15138;51.012;4.692;2023-02-20T12:10:37;9.30;99.90
27747;DHT22;15138;51.012;4.692;2023-02-20T12:13:12;9.40;99.90
27747;DHT22;15138;51.012;4.692;2023-02-20T12:15:50;9.40;99.90
27747;DHT22;15138;51.012;4.692;2023-02-20T12:18:36;9.50;99.90
27747;DHT22;15138;51.012;4.692;2023-02-20T12:21:31;9.40;99.90
27747;DHT22;15138;51.012;4.692;2023-02-20T12:24:41;9.40;99.90
27747;DHT22;15138;51.012;4.692;2023-02-20T12:27:45;9.40;99.90
27747;DHT22;15138;51.012;4.692;2023-02-20T12:30:30;9.50;99.90
27747;DHT22;15138;51.012;4.692;2023-02-20T12:33:20;9.40;99.90
27747;DHT22;15138;51.012;4.692;2023-02-20T12:36:00;9.50;99.90
27747;DHT22;15138;51.012;4.692;2023-02-20T12:38:40;9.50;99.90
27747;DHT22;15138;51.012;4.692;2023-02-20T12:44:29;9.50;98.90
27747;DHT22;15138;51.012;4.692;2023-02-20T12:47:03;9.40;93.00
27747;DHT22;15138;51.012;4.692;2023-02-20T12:49:54;9.50;94.50
27747;DHT22;15138;51.012;4.692;2023-02-20T12:52:48;9.50;94.80
27747;DHT22;15138;51.012;4.692;2023-02-20T12:55:28;9.50;92.50
27747;DHT22;15138;51.012;4.692;2023-02-20T12:58:15;9.60;94.20
27747;DHT22;15138;51.012;4.692;2023-02-20T13:00:52;9.60;92.10
27747;DHT22;15138;51.012;4.692;2023-02-20T13:03:43;9.70;91.70
27747;DHT22;15138;51.012;4.692;2023-02-20T13:06:26;9.60;81.10
27747;DHT22;15138;51.012;4.692;2023-02-20T13:09:05;9.60;83.80
27747;DHT22;15138;51.012;4.692;2023-02-20T13:11:46;9.60;76.90
27747;DHT22;15138;51.012;4.692;2023-02-20T13:14:50;9.70;76.60
27747;DHT22;15138;51.012;4.692;2023-02-20T13:17:37;9.60;68.40
27747;DHT22;15138;51.012;4.692;2023-02-20T13:20:22;9.70;75.10
27747;DHT22;15138;51.012;4.692;2023-02-20T13:23:04;9.70;74.10
27747;DHT22;15138;51.012;4.692;2023-02-20T13:25:39;9.70;66.60
27747;DHT22;15138;51.012;4.692;2023-02-20T13:28:23;9.50;60.80
27747;DHT22;15138;51.012;4.692;2023-02-20T13:31:20;9.70;67.90
27747;DHT22;15138;51.012;4.692;2023-02-20T13:40:43;9.80;67.50
27747;DHT22;15138;51.012;4.692;2023-02-20T13:43:32;9.70;56.10
27747;DHT22;15138;51.012;4.692;2023-02-20T13:46:17;9.70;58.90
27747;DHT22;15138;51.012;4.692;2023-02-20T13:48:54;9.70;56.00
27747;DHT22;15138;51.012;4.692;2023-02-20T13:51:35;9.60;58.60
27747;DHT22;15138;51.012;4.692;2023-02-20T13:54:23;9.70;60.30
27747;DHT22;15138;51.012;4.692;2023-02-20T13:57:08;9.70;58.70
27747;DHT22;15138;51.012;4.692;2023-02-20T14:00:01;9.70;60.10
27747;DHT22;15138;51.012;4.692;2023-02-20T14:02:40;9.70;58.20
27747;DHT22;15138;51.012;4.692;2023-02-20T14:05:23;9.70;60.70
27747;DHT22;15138;51.012;4.692;2023-02-20T14:08:00;9.70;60.10
27747;DHT22;15138;51.012;4.692;2023-02-20T14:10:36;9.70;60.60
27747;DHT22;15138;51.012;4.692;2023-02-20T14:13:14;9.70;62.50
27747;DHT22;15138;51.012;4.692;2023-02-20T14:15:56;9.70;68.10
27747;DHT22;15138;51.012;4.692;2023-02-20T14:18:30;9.70;66.60
27747;DHT22;15138;51.012;4.692;2023-02-20T14:21:08;9.70;71.80
27747;DHT22;15138;51.012;4.692;2023-02-20T14:23:42;9.70;69.70
27747;DHT22;15138;51.012;4.692;2023-02-20T14:26:22;9.80;73.20
27747;DHT22;15138;51.012;4.692;2023-02-20T14:28:57;9.90;75.40
27747;DHT22;15138;51.012;4.692;2023-02-20T14:31:29;9.90;69.50
27747;DHT22;15138;51.012;4.692;2023-02-20T14:34:07;9.90;69.20
27747;DHT22;15138;51.012;4.692;2023-02-20T14:36:48;9.90;66.30
27747;DHT22;15138;51.012;4.692;2023-02-20T14:39:40;9.90;62.50
27747;DHT22;15138;51.012;4.692;2023-02-20T14:42:15;9.90;61.70
27747;DHT22;15138;51.012;4.692;2023-02-20T14:44:47;9.90;63.10
27747;DHT22;15138;51.012;4.692;2023-02-20T14:47:18;9.90;66.60
27747;DHT22;15138;51.012;4.692;2023-02-20T14:49:50;9.90;64.80
27747;DHT22;15138;51.012;4.692;2023-02-20T14:52:23;9.90;66.60
27747;DHT22;15138;51.012;4.692;2023-02-20T14:54:59;9.90;58.10
27747;DHT22;15138;51.012;4.692;2023-02-20T14:57:30;9.90;62.10
27747;DHT22;15138;51.012;4.692;2023-02-20T15:00:25;9.90;55.30
27747;DHT22;15138;51.012;4.692;2023-02-20T15:03:08;9.90;56.20
27747;DHT22;15138;51.012;4.692;2023-02-20T15:06:04;9.90;60.80
27747;DHT22;15138;51.012;4.692;2023-02-20T15:08:37;9.90;57.10
27747;DHT22;15138;51.012;4.692;2023-02-20T15:11:09;9.90;59.50
27747;DHT22;15138;51.012;4.692;2023-02-20T15:13:43;9.90;60.10
27747;DHT22;15138;51.012;4.692;2023-02-20T15:16:19;9.90;61.40
27747;DHT22;15138;51.012;4.692;2023-02-20T15:18:49;9.80;58.70
27747;DHT22;15138;51.012;4.692;2023-02-20T15:21:35;9.80;58.90
27747;DHT22;15138;51.012;4.692;2023-02-20T15:24:35;9.90;61.60
27747;DHT22;15138;51.012;4.692;2023-02-20T15:27:10;9.80;66.70
27747;DHT22;15138;51.012;4.692;2023-02-20T15:29:46;9.80;69.20
27747;DHT22;15138;51.012;4.692;2023-02-20T15:32:20;9.80;68.90
27747;DHT22;15138;51.012;4.692;2023-02-20T15:34:53;9.80;75.80
27747;DHT22;15138;51.012;4.692;2023-02-20T15:37:28;9.80;71.50
27747;DHT22;15138;51.012;4.692;2023-02-20T15:40:21;9.80;72.60
27747;DHT22;15138;51.012;4.692;2023-02-20T15:42:51;9.80;79.10
27747;DHT22;15138;51.012;4.692;2023-02-20T15:45:26;9.80;79.50
27747;DHT22;15138;51.012;4.692;2023-02-20T15:47:58;9.70;82.00
27747;DHT22;15138;51.012;4.692;2023-02-20T15:50:42;9.70;83.30
27747;DHT22;15138;51.012;4.692;2023-02-20T15:53:18;9.70;85.00
27747;DHT22;15138;51.012;4.692;2023-02-20T15:55:51;9.70;89.00
27747;DHT22;15138;51.012;4.692;2023-02-20T15:58:23;9.70;90.30
27747;DHT22;15138;51.012;4.692;2023-02-20T16:01:01;9.80;92.60
27747;DHT22;15138;51.012;4.692;2023-02-20T16:03:32;9.70;93.70
27747;DHT22;15138;51.012;4.692;2023-02-20T16:06:17;9.70;94.50
27747;DHT22;15138;51.012;4.692;2023-02-20T16:08:52;9.70;94.60
27747;DHT22;15138;51.012;4.692;2023-02-20T16:11:24;9.70;94.80
27747;DHT22;15138;51.012;4.692;2023-02-20T16:13:57;9.70;94.80
27747;DHT22;15138;51.012;4.692;2023-02-20T16:16:32;9.70;95.10
27747;DHT22;15138;51.012;4.692;2023-02-20T16:19:21;9.70;96.80
27747;DHT22;15138;51.012;4.692;2023-02-20T16:22:14;9.70;95.90
27747;DHT22;15138;51.012;4.692;2023-02-20T16:24:50;9.70;98.70
27747;DHT22;15138;51.012;4.692;2023-02-20T16:27:23;9.70;98.00
27747;DHT22;15138;51.012;4.692;2023-02-20T16:29:56;9.70;99.70
27747;DHT22;15138;51.012;4.692;2023-02-20T16:32:27;9.70;99.90
27747;DHT22;15138;51.012;4.692;2023-02-20T16:34:59;9.70;99.90
27747;DHT22;15138;51.012;4.692;2023-02-20T16:37:31;9.70;99.90
27747;DHT22;15138;51.012;4.692;2023-02-20T16:40:07;9.70;99.90
27747;DHT22;15138;51.012;4.692;2023-02-20T16:42:37;9.70;99.90
27747;DHT22;15138;51.012;4.692;2023-02-20T16:45:15;9.70;99.70
27747;DHT22;15138;51.012;4.692;2023-02-20T16:47:51;9.70;99.90
27747;DHT22;15138;51.012;4.692;2023-02-20T16:50:23;9.70;99.90
27747;DHT22;15138;51.012;4.692;2023-02-20T16:53:10;9.60;99.90
27747;DHT22;15138;51.012;4.692;2023-02-20T16:55:44;9.60;99.90
27747;DHT22;15138;51.012;4.692;2023-02-20T16:58:22;9.70;99.90
27747;DHT22;15138;51.012;4.692;2023-02-20T17:00:52;9.60;99.90
27747;DHT22;15138;51.012;4.692;2023-02-20T17:03:24;9.60;99.90
27747;DHT22;15138;51.012;4.692;2023-02-20T17:05:59;9.60;99.90
27747;DHT22;15138;51.012;4.692;2023-02-20T17:08:30;9.60;99.90
27747;DHT22;15138;51.012;4.692;2023-02-20T17:11:01;9.60;99.90
27747;DHT22;15138;51.012;4.692;2023-02-20T17:13:32;9.60;99.90
27747;DHT22;15138;51.012;4.692;2023-02-20T17:16:07;9.60;99.90